sensor_id;sensor_type;location;lat;lon;timestamp;P1;durP1;ratioP1;P2;durP2;ratioP2
14167;SDS011;7163;50.626;12.922;2022-08-01T00:04:18;9.13;;;6.00;;
14167;SDS011;7163;50.626;12.922;2022-08-01T00:09:19;6.80;;;5.60;;
14167;SDS011;7163;50.626;12.922;2022-08-01T00:14:19;6.63;;;5.63;;
14167;SDS011;7163;50.626;12.922;2022-08-01T00:19:19;6.80;;;6.03;;
14167;SDS011;7163;50.626;12.922;2022-08-01T00:24:20;7.93;;;6.00;;
14167;SDS011;7163;50.626;12.922;2022-08-01T00:29:20;6.50;;;5.87;;
14167;SDS011;7163;50.626;12.922;2022-08-01T00:34:21;7.43;;;5.90;;
14167;SDS011;7163;50.626;12.922;2022-08-01T00:39:21;7.33;;;6.40;;
14167;SDS011;7163;50.626;12.922;2022-08-01T00:44:21;8.30;;;6.73;;
14167;SDS011;7163;50.626;12.922;2022-08-01T00:49:22;8.33;;;6.63;;
14167;SDS011;7163;50.626;12.922;2022-08-01T00:54:23;8.37;;;6.57;;
14167;SDS011;7163;50.626;12.922;2022-08-01T00:59:24;11.07;;;6.30;;
14167;SDS011;7163;50.626;12.922;2022-08-01T01:04:25;9.43;;;6.30;;
14167;SDS011;7163;50.626;12.922;2022-08-01T01:09:39;7.37;;;5.63;;
14167;SDS011;7163;50.626;12.922;2022-08-01T01:14:49;8.03;;;6.13;;
14167;SDS011;7163;50.626;12.922;2022-08-01T01:20:03;6.13;;;5.40;;
14167;SDS011;7163;50.626;12.922;2022-08-01T01:25:10;7.33;;;6.00;;
14167;SDS011;7163;50.626;12.922;2022-08-01T01:30:23;6.80;;;5.27;;
14167;SDS011;7163;50.626;12.922;2022-08-01T01:35:24;9.27;;;5.30;;
14167;SDS011;7163;50.626;12.922;2022-08-01T01:40:27;9.33;;;4.77;;
14167;SDS011;7163;50.626;12.922;2022-08-01T01:45:28;9.30;;;4.97;;
14167;SDS011;7163;50.626;12.922;2022-08-01T01:50:29;6.97;;;5.00;;
14167;SDS011;7163;50.626;12.922;2022-08-01T01:55:32;6.03;;;4.53;;
14167;SDS011;7163;50.626;12.922;2022-08-01T02:00:34;6.20;;;4.37;;
14167;SDS011;7163;50.626;12.922;2022-08-01T02:05:35;6.77;;;4.40;;
14167;SDS011;7163;50.626;12.922;2022-08-01T02:10:36;6.67;;;4.13;;
14167;SDS011;7163;50.626;12.922;2022-08-01T02:15:38;6.93;;;4.37;;
14167;SDS011;7163;50.626;12.922;2022-08-01T02:20:38;6.80;;;3.90;;
14167;SDS011;7163;50.626;12.922;2022-08-01T02:25:41;4.27;;;3.87;;
14167;SDS011;7163;50.626;12.922;2022-08-01T02:30:44;6.53;;;4.17;;
14167;SDS011;7163;50.626;12.922;2022-08-01T02:35:48;4.37;;;3.80;;
14167;SDS011;7163;50.626;12.922;2022-08-01T02:40:50;4.10;;;3.70;;
14167;SDS011;7163;50.626;12.922;2022-08-01T02:45:53;4.50;;;3.63;;
14167;SDS011;7163;50.626;12.922;2022-08-01T02:50:57;4.40;;;3.73;;
14167;SDS011;7163;50.626;12.922;2022-08-01T02:55:58;4.80;;;3.90;;
14167;SDS011;7163;50.626;12.922;2022-08-01T03:00:59;5.20;;;3.77;;
14167;SDS011;7163;50.626;12.922;2022-08-01T03:06:01;4.40;;;3.80;;
14167;SDS011;7163;50.626;12.922;2022-08-01T03:11:02;4.73;;;3.67;;
14167;SDS011;7163;50.626;12.922;2022-08-01T03:16:03;4.10;;;3.33;;
14167;SDS011;7163;50.626;12.922;2022-08-01T03:21:04;5.60;;;3.73;;
14167;SDS011;7163;50.626;12.922;2022-08-01T03:26:06;4.30;;;3.90;;
14167;SDS011;7163;50.626;12.922;2022-08-01T03:31:07;4.77;;;3.70;;
14167;SDS011;7163;50.626;12.922;2022-08-01T03:36:09;7.00;;;4.10;;
14167;SDS011;7163;50.626;12.922;2022-08-01T03:41:11;5.93;;;4.50;;
14167;SDS011;7163;50.626;12.922;2022-08-01T03:46:16;6.23;;;4.50;;
14167;SDS011;7163;50.626;12.922;2022-08-01T03:51:19;5.93;;;4.73;;
14167;SDS011;7163;50.626;12.922;2022-08-01T03:56:21;5.20;;;4.40;;
14167;SDS011;7163;50.626;12.922;2022-08-01T04:01:23;6.53;;;4.67;;
14167;SDS011;7163;50.626;12.922;2022-08-01T04:06:23;5.77;;;4.37;;
14167;SDS011;7163;50.626;12.922;2022-08-01T04:11:24;6.07;;;4.97;;
14167;SDS011;7163;50.626;12.922;2022-08-01T04:16:25;6.00;;;4.50;;
14167;SDS011;7163;50.626;12.922;2022-08-01T04:21:26;6.87;;;5.40;;
14167;SDS011;7163;50.626;12.922;2022-08-01T04:26:29;5.90;;;4.37;;
14167;SDS011;7163;50.626;12.922;2022-08-01T04:31:30;6.23;;;4.67;;
14167;SDS011;7163;50.626;12.922;2022-08-01T04:36:32;7.30;;;4.70;;
14167;SDS011;7163;50.626;12.922;2022-08-01T04:41:35;6.23;;;4.77;;
14167;SDS011;7163;50.626;12.922;2022-08-01T04:46:36;5.40;;;3.90;;
14167;SDS011;7163;50.626;12.922;2022-08-01T04:51:48;8.83;;;4.70;;
14167;SDS011;7163;50.626;12.922;2022-08-01T04:56:57;6.37;;;4.90;;
14167;SDS011;7163;50.626;12.922;2022-08-01T05:01:59;5.77;;;4.93;;
14167;SDS011;7163;50.626;12.922;2022-08-01T05:07:00;7.93;;;5.10;;
14167;SDS011;7163;50.626;12.922;2022-08-01T05:12:01;6.57;;;4.27;;
14167;SDS011;7163;50.626;12.922;2022-08-01T05:17:03;6.57;;;5.13;;
14167;SDS011;7163;50.626;12.922;2022-08-01T05:22:07;7.50;;;4.43;;
14167;SDS011;7163;50.626;12.922;2022-08-01T05:27:08;7.80;;;4.80;;
14167;SDS011;7163;50.626;12.922;2022-08-01T05:32:08;5.27;;;4.10;;
14167;SDS011;7163;50.626;12.922;2022-08-01T05:37:09;4.47;;;4.07;;
14167;SDS011;7163;50.626;12.922;2022-08-01T05:42:10;6.03;;;4.40;;
14167;SDS011;7163;50.626;12.922;2022-08-01T05:47:10;8.17;;;5.13;;
14167;SDS011;7163;50.626;12.922;2022-08-01T05:52:11;6.20;;;4.90;;
14167;SDS011;7163;50.626;12.922;2022-08-01T05:57:11;7.00;;;5.90;;
14167;SDS011;7163;50.626;12.922;2022-08-01T06:02:12;7.00;;;5.83;;
14167;SDS011;7163;50.626;12.922;2022-08-01T06:07:12;7.40;;;5.53;;
14167;SDS011;7163;50.626;12.922;2022-08-01T06:12:13;6.90;;;5.73;;
14167;SDS011;7163;50.626;12.922;2022-08-01T06:17:13;7.03;;;5.50;;
14167;SDS011;7163;50.626;12.922;2022-08-01T06:22:14;6.03;;;5.43;;
14167;SDS011;7163;50.626;12.922;2022-08-01T06:27:14;11.80;;;9.67;;
14167;SDS011;7163;50.626;12.922;2022-08-01T06:32:15;12.60;;;9.07;;
14167;SDS011;7163;50.626;12.922;2022-08-01T06:37:15;67.70;;;47.47;;
14167;SDS011;7163;50.626;12.922;2022-08-01T06:42:16;18.50;;;14.87;;
14167;SDS011;7163;50.626;12.922;2022-08-01T06:47:17;8.30;;;6.40;;
14167;SDS011;7163;50.626;12.922;2022-08-01T06:52:17;7.50;;;6.33;;
14167;SDS011;7163;50.626;12.922;2022-08-01T06:57:17;8.00;;;6.43;;
14167;SDS011;7163;50.626;12.922;2022-08-01T07:02:18;6.73;;;6.00;;
14167;SDS011;7163;50.626;12.922;2022-08-01T07:07:18;5.77;;;4.90;;
14167;SDS011;7163;50.626;12.922;2022-08-01T07:12:19;6.32;;;4.45;;
14167;SDS011;7163;50.626;12.922;2022-08-01T07:17:19;3.90;;;3.20;;
14167;SDS011;7163;50.626;12.922;2022-08-01T07:22:20;3.70;;;3.30;;
14167;SDS011;7163;50.626;12.922;2022-08-01T07:27:21;4.53;;;3.50;;
14167;SDS011;7163;50.626;12.922;2022-08-01T07:32:21;4.72;;;3.13;;
14167;SDS011;7163;50.626;12.922;2022-08-01T07:37:22;3.55;;;2.97;;
14167;SDS011;7163;50.626;12.922;2022-08-01T07:42:23;3.03;;;2.67;;
14167;SDS011;7163;50.626;12.922;2022-08-01T07:47:24;3.50;;;2.80;;
14167;SDS011;7163;50.626;12.922;2022-08-01T07:52:25;3.08;;;2.45;;
14167;SDS011;7163;50.626;12.922;2022-08-01T07:57:26;4.20;;;2.95;;
14167;SDS011;7163;50.626;12.922;2022-08-01T08:02:27;3.47;;;3.17;;
14167;SDS011;7163;50.626;12.922;2022-08-01T08:07:27;6.78;;;3.30;;
14167;SDS011;7163;50.626;12.922;2022-08-01T08:12:28;3.97;;;3.08;;
14167;SDS011;7163;50.626;12.922;2022-08-01T08:17:28;4.00;;;3.00;;
14167;SDS011;7163;50.626;12.922;2022-08-01T08:22:29;3.10;;;2.70;;
14167;SDS011;7163;50.626;12.922;2022-08-01T08:27:30;3.00;;;2.80;;
14167;SDS011;7163;50.626;12.922;2022-08-01T08:32:30;2.50;;;2.30;;
14167;SDS011;7163;50.626;12.922;2022-08-01T08:37:31;2.53;;;2.33;;
14167;SDS011;7163;50.626;12.922;2022-08-01T08:42:32;3.35;;;2.78;;
14167;SDS011;7163;50.626;12.922;2022-08-01T08:47:33;4.20;;;2.97;;
14167;SDS011;7163;50.626;12.922;2022-08-01T08:52:35;2.17;;;1.98;;
14167;SDS011;7163;50.626;12.922;2022-08-01T08:57:39;2.30;;;2.10;;
14167;SDS011;7163;50.626;12.922;2022-08-01T09:02:43;3.35;;;2.60;;
14167;SDS011;7163;50.626;12.922;2022-08-01T09:07:44;4.97;;;2.78;;
14167;SDS011;7163;50.626;12.922;2022-08-01T09:18:28;2.67;;;2.47;;
14167;SDS011;7163;50.626;12.922;2022-08-01T09:23:33;2.75;;;2.17;;
14167;SDS011;7163;50.626;12.922;2022-08-01T09:28:34;2.25;;;1.80;;
14167;SDS011;7163;50.626;12.922;2022-08-01T09:38:53;1.67;;;1.58;;
14167;SDS011;7163;50.626;12.922;2022-08-01T09:43:54;2.05;;;1.67;;
14167;SDS011;7163;50.626;12.922;2022-08-01T09:48:59;2.53;;;2.00;;
14167;SDS011;7163;50.626;12.922;2022-08-01T09:54:05;1.80;;;1.70;;
14167;SDS011;7163;50.626;12.922;2022-08-01T09:59:06;1.67;;;1.48;;
14167;SDS011;7163;50.626;12.922;2022-08-01T10:04:09;6.35;;;4.30;;
14167;SDS011;7163;50.626;12.922;2022-08-01T10:09:13;4.45;;;3.88;;
14167;SDS011;7163;50.626;12.922;2022-08-01T10:14:14;3.55;;;3.25;;
14167;SDS011;7163;50.626;12.922;2022-08-01T10:19:15;2.40;;;2.17;;
14167;SDS011;7163;50.626;12.922;2022-08-01T10:24:16;2.10;;;1.65;;
14167;SDS011;7163;50.626;12.922;2022-08-01T10:29:18;1.45;;;1.35;;
14167;SDS011;7163;50.626;12.922;2022-08-01T10:34:20;1.15;;;1.00;;
14167;SDS011;7163;50.626;12.922;2022-08-01T10:39:21;1.50;;;1.40;;
14167;SDS011;7163;50.626;12.922;2022-08-01T10:44:26;1.25;;;1.13;;
14167;SDS011;7163;50.626;12.922;2022-08-01T10:49:29;3.08;;;2.00;;
14167;SDS011;7163;50.626;12.922;2022-08-01T10:54:32;3.47;;;1.73;;
14167;SDS011;7163;50.626;12.922;2022-08-01T10:59:48;1.40;;;1.30;;
14167;SDS011;7163;50.626;12.922;2022-08-01T11:10:59;1.67;;;1.27;;
14167;SDS011;7163;50.626;12.922;2022-08-01T11:15:37;1.27;;;1.17;;
14167;SDS011;7163;50.626;12.922;2022-08-01T11:20:38;1.75;;;1.00;;
14167;SDS011;7163;50.626;12.922;2022-08-01T11:26:07;2.55;;;0.90;;
14167;SDS011;7163;50.626;12.922;2022-08-01T11:41:25;1.95;;;1.00;;
14167;SDS011;7163;50.626;12.922;2022-08-01T11:51:45;1.15;;;0.70;;
14167;SDS011;7163;50.626;12.922;2022-08-01T11:56:46;0.63;;;0.63;;
14167;SDS011;7163;50.626;12.922;2022-08-01T12:01:47;1.42;;;0.77;;
14167;SDS011;7163;50.626;12.922;2022-08-01T12:06:47;0.90;;;0.90;;
14167;SDS011;7163;50.626;12.922;2022-08-01T12:11:48;1.67;;;0.90;;
14167;SDS011;7163;50.626;12.922;2022-08-01T12:16:50;2.85;;;0.80;;
14167;SDS011;7163;50.626;12.922;2022-08-01T12:27:09;0.68;;;0.60;;
14167;SDS011;7163;50.626;12.922;2022-08-01T12:32:26;0.77;;;0.70;;
14167;SDS011;7163;50.626;12.922;2022-08-01T12:37:27;0.80;;;0.80;;
14167;SDS011;7163;50.626;12.922;2022-08-01T12:42:28;0.90;;;0.90;;
14167;SDS011;7163;50.626;12.922;2022-08-01T12:47:28;0.70;;;0.70;;
14167;SDS011;7163;50.626;12.922;2022-08-01T12:52:29;1.00;;;0.98;;
14167;SDS011;7163;50.626;12.922;2022-08-01T12:57:31;1.00;;;0.93;;
14167;SDS011;7163;50.626;12.922;2022-08-01T13:02:33;1.10;;;1.10;;
14167;SDS011;7163;50.626;12.922;2022-08-01T13:07:49;1.27;;;0.90;;
14167;SDS011;7163;50.626;12.922;2022-08-01T13:12:51;1.95;;;1.02;;
14167;SDS011;7163;50.626;12.922;2022-08-01T13:17:52;2.28;;;0.98;;
14167;SDS011;7163;50.626;12.922;2022-08-01T13:22:54;1.10;;;1.00;;
14167;SDS011;7163;50.626;12.922;2022-08-01T13:33:14;3.28;;;1.50;;
14167;SDS011;7163;50.626;12.922;2022-08-01T13:38:14;1.30;;;0.98;;
14167;SDS011;7163;50.626;12.922;2022-08-01T13:43:14;1.15;;;1.05;;
14167;SDS011;7163;50.626;12.922;2022-08-01T13:48:15;2.60;;;1.20;;
14167;SDS011;7163;50.626;12.922;2022-08-01T13:53:15;1.30;;;1.20;;
14167;SDS011;7163;50.626;12.922;2022-08-01T13:58:17;0.90;;;0.90;;
14167;SDS011;7163;50.626;12.922;2022-08-01T14:03:17;1.40;;;1.08;;
14167;SDS011;7163;50.626;12.922;2022-08-01T14:08:18;1.63;;;1.10;;
14167;SDS011;7163;50.626;12.922;2022-08-01T14:13:18;2.05;;;0.90;;
14167;SDS011;7163;50.626;12.922;2022-08-01T14:18:19;0.75;;;0.75;;
14167;SDS011;7163;50.626;12.922;2022-08-01T14:23:19;1.00;;;0.80;;
14167;SDS011;7163;50.626;12.922;2022-08-01T14:28:20;0.90;;;0.90;;
14167;SDS011;7163;50.626;12.922;2022-08-01T14:33:21;1.27;;;0.75;;
14167;SDS011;7163;50.626;12.922;2022-08-01T14:38:21;0.90;;;0.80;;
14167;SDS011;7163;50.626;12.922;2022-08-01T14:43:22;2.67;;;0.82;;
14167;SDS011;7163;50.626;12.922;2022-08-01T14:48:22;1.10;;;1.00;;
14167;SDS011;7163;50.626;12.922;2022-08-01T14:53:22;2.72;;;1.02;;
14167;SDS011;7163;50.626;12.922;2022-08-01T14:58:25;1.88;;;0.80;;
14167;SDS011;7163;50.626;12.922;2022-08-01T15:03:25;0.73;;;0.73;;
14167;SDS011;7163;50.626;12.922;2022-08-01T15:08:26;1.02;;;0.90;;
14167;SDS011;7163;50.626;12.922;2022-08-01T15:13:26;0.90;;;0.80;;
14167;SDS011;7163;50.626;12.922;2022-08-01T15:18:27;1.47;;;1.03;;
14167;SDS011;7163;50.626;12.922;2022-08-01T15:23:28;0.65;;;0.65;;
14167;SDS011;7163;50.626;12.922;2022-08-01T15:28:28;0.97;;;0.70;;
14167;SDS011;7163;50.626;12.922;2022-08-01T15:33:29;0.50;;;0.50;;
14167;SDS011;7163;50.626;12.922;2022-08-01T15:38:29;0.93;;;0.93;;
14167;SDS011;7163;50.626;12.922;2022-08-01T15:43:29;2.38;;;1.33;;
14167;SDS011;7163;50.626;12.922;2022-08-01T15:48:30;1.10;;;0.90;;
14167;SDS011;7163;50.626;12.922;2022-08-01T15:53:30;1.98;;;1.30;;
14167;SDS011;7163;50.626;12.922;2022-08-01T15:58:30;3.28;;;1.00;;
14167;SDS011;7163;50.626;12.922;2022-08-01T16:03:31;1.00;;;1.00;;
14167;SDS011;7163;50.626;12.922;2022-08-01T16:08:31;1.27;;;0.80;;
14167;SDS011;7163;50.626;12.922;2022-08-01T16:13:32;1.58;;;1.20;;
14167;SDS011;7163;50.626;12.922;2022-08-01T16:18:32;1.30;;;1.20;;
14167;SDS011;7163;50.626;12.922;2022-08-01T16:23:33;1.25;;;0.90;;
14167;SDS011;7163;50.626;12.922;2022-08-01T16:28:33;2.55;;;1.27;;
14167;SDS011;7163;50.626;12.922;2022-08-01T16:33:34;2.25;;;1.95;;
14167;SDS011;7163;50.626;12.922;2022-08-01T16:38:35;1.33;;;1.08;;
14167;SDS011;7163;50.626;12.922;2022-08-01T16:43:35;0.98;;;0.98;;
14167;SDS011;7163;50.626;12.922;2022-08-01T16:48:36;3.72;;;1.10;;
14167;SDS011;7163;50.626;12.922;2022-08-01T16:53:36;1.20;;;1.10;;
14167;SDS011;7163;50.626;12.922;2022-08-01T16:58:37;1.80;;;1.70;;
14167;SDS011;7163;50.626;12.922;2022-08-01T17:03:37;2.53;;;1.38;;
14167;SDS011;7163;50.626;12.922;2022-08-01T17:08:38;1.65;;;1.55;;
14167;SDS011;7163;50.626;12.922;2022-08-01T17:13:39;1.30;;;1.20;;
14167;SDS011;7163;50.626;12.922;2022-08-01T17:18:39;1.50;;;1.40;;
14167;SDS011;7163;50.626;12.922;2022-08-01T17:23:40;1.80;;;1.70;;
14167;SDS011;7163;50.626;12.922;2022-08-01T17:28:40;1.65;;;1.55;;
14167;SDS011;7163;50.626;12.922;2022-08-01T17:33:40;1.60;;;1.50;;
14167;SDS011;7163;50.626;12.922;2022-08-01T17:38:42;1.73;;;1.60;;
14167;SDS011;7163;50.626;12.922;2022-08-01T17:43:43;2.75;;;1.85;;
14167;SDS011;7163;50.626;12.922;2022-08-01T17:48:43;2.50;;;2.30;;
14167;SDS011;7163;50.626;12.922;2022-08-01T17:53:45;3.10;;;2.00;;
14167;SDS011;7163;50.626;12.922;2022-08-01T17:58:45;4.28;;;2.10;;
14167;SDS011;7163;50.626;12.922;2022-08-01T18:03:46;2.65;;;2.00;;
14167;SDS011;7163;50.626;12.922;2022-08-01T18:08:47;2.88;;;2.25;;
14167;SDS011;7163;50.626;12.922;2022-08-01T18:13:48;3.58;;;2.42;;
14167;SDS011;7163;50.626;12.922;2022-08-01T18:18:48;2.38;;;2.17;;
14167;SDS011;7163;50.626;12.922;2022-08-01T18:23:48;2.40;;;2.20;;
14167;SDS011;7163;50.626;12.922;2022-08-01T18:28:49;5.18;;;3.25;;
14167;SDS011;7163;50.626;12.922;2022-08-01T18:33:50;2.65;;;2.28;;
14167;SDS011;7163;50.626;12.922;2022-08-01T18:38:50;5.90;;;3.58;;
14167;SDS011;7163;50.626;12.922;2022-08-01T18:43:51;2.38;;;2.03;;
14167;SDS011;7163;50.626;12.922;2022-08-01T18:48:53;4.28;;;2.58;;
14167;SDS011;7163;50.626;12.922;2022-08-01T18:53:53;3.90;;;2.70;;
14167;SDS011;7163;50.626;12.922;2022-08-01T18:58:55;4.10;;;3.10;;
14167;SDS011;7163;50.626;12.922;2022-08-01T19:03:55;4.80;;;2.50;;
14167;SDS011;7163;50.626;12.922;2022-08-01T19:08:56;3.67;;;2.50;;
14167;SDS011;7163;50.626;12.922;2022-08-01T19:13:57;3.67;;;2.93;;
14167;SDS011;7163;50.626;12.922;2022-08-01T19:18:58;13.80;;;12.33;;
14167;SDS011;7163;50.626;12.922;2022-08-01T19:24:02;27.67;;;24.87;;
14167;SDS011;7163;50.626;12.922;2022-08-01T19:29:20;18.80;;;16.90;;
14167;SDS011;7163;50.626;12.922;2022-08-01T19:34:24;11.20;;;10.03;;
14167;SDS011;7163;50.626;12.922;2022-08-01T19:39:25;19.87;;;17.90;;
14167;SDS011;7163;50.626;12.922;2022-08-01T19:44:28;14.20;;;12.70;;
14167;SDS011;7163;50.626;12.922;2022-08-01T19:49:28;17.90;;;16.10;;
14167;SDS011;7163;50.626;12.922;2022-08-01T19:54:31;22.03;;;19.13;;
14167;SDS011;7163;50.626;12.922;2022-08-01T19:59:33;23.57;;;21.10;;
14167;SDS011;7163;50.626;12.922;2022-08-01T20:04:34;24.80;;;21.40;;
14167;SDS011;7163;50.626;12.922;2022-08-01T20:09:35;12.10;;;10.80;;
14167;SDS011;7163;50.626;12.922;2022-08-01T20:14:38;8.40;;;7.20;;
14167;SDS011;7163;50.626;12.922;2022-08-01T20:19:40;11.93;;;9.50;;
14167;SDS011;7163;50.626;12.922;2022-08-01T20:24:41;12.30;;;10.57;;
14167;SDS011;7163;50.626;12.922;2022-08-01T20:29:48;13.37;;;9.33;;
14167;SDS011;7163;50.626;12.922;2022-08-01T20:34:49;16.13;;;10.07;;
14167;SDS011;7163;50.626;12.922;2022-08-01T20:39:50;6.77;;;5.37;;
14167;SDS011;7163;50.626;12.922;2022-08-01T20:44:55;15.17;;;11.67;;
14167;SDS011;7163;50.626;12.922;2022-08-01T20:49:56;15.37;;;10.77;;
14167;SDS011;7163;50.626;12.922;2022-08-01T20:55:16;19.90;;;15.87;;
14167;SDS011;7163;50.626;12.922;2022-08-01T21:00:17;21.17;;;14.70;;
14167;SDS011;7163;50.626;12.922;2022-08-01T21:10:42;19.60;;;13.47;;
14167;SDS011;7163;50.626;12.922;2022-08-01T21:15:48;11.90;;;9.30;;
14167;SDS011;7163;50.626;12.922;2022-08-01T21:25:58;16.10;;;12.57;;
14167;SDS011;7163;50.626;12.922;2022-08-01T21:30:58;15.67;;;12.10;;
14167;SDS011;7163;50.626;12.922;2022-08-01T21:35:59;15.20;;;11.97;;
14167;SDS011;7163;50.626;12.922;2022-08-01T21:41:00;12.13;;;9.13;;
14167;SDS011;7163;50.626;12.922;2022-08-01T21:46:02;14.07;;;11.23;;
14167;SDS011;7163;50.626;12.922;2022-08-01T21:51:12;19.50;;;14.23;;
14167;SDS011;7163;50.626;12.922;2022-08-01T21:56:25;14.93;;;11.20;;
14167;SDS011;7163;50.626;12.922;2022-08-01T22:06:42;7.50;;;5.43;;
14167;SDS011;7163;50.626;12.922;2022-08-01T22:11:43;6.20;;;4.80;;
14167;SDS011;7163;50.626;12.922;2022-08-01T22:16:44;7.73;;;4.57;;
14167;SDS011;7163;50.626;12.922;2022-08-01T22:21:45;3.80;;;3.40;;
14167;SDS011;7163;50.626;12.922;2022-08-01T22:26:45;5.07;;;3.67;;
14167;SDS011;7163;50.626;12.922;2022-08-01T22:31:47;4.50;;;3.60;;
14167;SDS011;7163;50.626;12.922;2022-08-01T22:36:48;5.47;;;3.87;;
14167;SDS011;7163;50.626;12.922;2022-08-01T22:41:50;4.47;;;3.27;;
14167;SDS011;7163;50.626;12.922;2022-08-01T22:47:02;4.57;;;3.40;;
14167;SDS011;7163;50.626;12.922;2022-08-01T22:52:11;4.87;;;4.10;;
14167;SDS011;7163;50.626;12.922;2022-08-01T22:57:24;8.20;;;3.80;;
14167;SDS011;7163;50.626;12.922;2022-08-01T23:02:29;5.30;;;3.73;;
14167;SDS011;7163;50.626;12.922;2022-08-01T23:07:33;4.67;;;3.87;;
14167;SDS011;7163;50.626;12.922;2022-08-01T23:12:37;5.10;;;3.83;;
14167;SDS011;7163;50.626;12.922;2022-08-01T23:17:38;3.97;;;3.37;;
14167;SDS011;7163;50.626;12.922;2022-08-01T23:22:39;4.30;;;3.90;;
14167;SDS011;7163;50.626;12.922;2022-08-01T23:27:41;4.80;;;4.00;;
14167;SDS011;7163;50.626;12.922;2022-08-01T23:32:43;4.87;;;4.13;;
14167;SDS011;7163;50.626;12.922;2022-08-01T23:37:44;4.53;;;3.77;;
14167;SDS011;7163;50.626;12.922;2022-08-01T23:42:44;4.67;;;3.83;;
14167;SDS011;7163;50.626;12.922;2022-08-01T23:47:45;5.57;;;4.30;;
14167;SDS011;7163;50.626;12.922;2022-08-01T23:52:46;4.83;;;4.30;;
14167;SDS011;7163;50.626;12.922;2022-08-01T23:57:46;5.50;;;4.40;;
